sensor_id;sensor_type;location;lat;lon;timestamp;temperature;humidity
18131;DHT22;9191;54.324;10.126;2022-12-20T00:01:43;7.10;99.90
18131;DHT22;9191;54.324;10.126;2022-12-20T00:04:11;6.80;99.90
18131;DHT22;9191;54.324;10.126;2022-12-20T00:06:38;7.00;99.90
18131;DHT22;9191;54.324;10.126;2022-12-20T00:09:06;7.10;99.90
18131;DHT22;9191;54.324;10.126;2022-12-20T00:11:34;7.10;99.90
18131;DHT22;9191;54.324;10.126;2022-12-20T00:14:00;7.20;99.90
18131;DHT22;9191;54.324;10.126;2022-12-20T00:16:27;7.10;99.90
18131;DHT22;9191;54.324;10.126;2022-12-20T00:18:55;7.10;99.90
18131;DHT22;9191;54.324;10.126;2022-12-20T00:21:24;7.10;99.90
18131;DHT22;9191;54.324;10.126;2022-12-20T00:23:52;7.30;99.90
18131;DHT22;9191;54.324;10.126;2022-12-20T00:26:19;7.10;99.90
18131;DHT22;9191;54.324;10.126;2022-12-20T00:28:48;7.10;99.90
18131;DHT22;9191;54.324;10.126;2022-12-20T00:31:16;7.10;99.90
18131;DHT22;9191;54.324;10.126;2022-12-20T00:33:44;7.20;99.90
18131;DHT22;9191;54.324;10.126;2022-12-20T00:36:11;7.20;99.90
18131;DHT22;9191;54.324;10.126;2022-12-20T00:38:39;7.20;99.90
18131;DHT22;9191;54.324;10.126;2022-12-20T00:41:07;7.20;99.90
18131;DHT22;9191;54.324;10.126;2022-12-20T00:43:34;7.30;99.90
18131;DHT22;9191;54.324;10.126;2022-12-20T00:46:01;7.30;99.90
18131;DHT22;9191;54.324;10.126;2022-12-20T00:48:28;7.40;99.90
18131;DHT22;9191;54.324;10.126;2022-12-20T00:50:57;7.40;99.90
18131;DHT22;9191;54.324;10.126;2022-12-20T00:53:23;7.30;99.90
18131;DHT22;9191;54.324;10.126;2022-12-20T00:55:51;7.30;99.90
18131;DHT22;9191;54.324;10.126;2022-12-20T00:58:18;7.30;99.90
18131;DHT22;9191;54.324;10.126;2022-12-20T01:00:45;7.30;99.90
18131;DHT22;9191;54.324;10.126;2022-12-20T01:03:13;7.40;99.90
18131;DHT22;9191;54.324;10.126;2022-12-20T01:05:48;7.50;99.90
18131;DHT22;9191;54.324;10.126;2022-12-20T01:08:14;7.30;99.90
18131;DHT22;9191;54.324;10.126;2022-12-20T01:10:41;7.30;99.90
18131;DHT22;9191;54.324;10.126;2022-12-20T01:13:09;7.30;99.90
18131;DHT22;9191;54.324;10.126;2022-12-20T01:15:36;7.30;99.90
18131;DHT22;9191;54.324;10.126;2022-12-20T01:18:02;7.30;99.90
18131;DHT22;9191;54.324;10.126;2022-12-20T01:20:29;7.30;99.90
18131;DHT22;9191;54.324;10.126;2022-12-20T01:22:56;7.40;99.90
18131;DHT22;9191;54.324;10.126;2022-12-20T01:25:23;7.40;99.90
18131;DHT22;9191;54.324;10.126;2022-12-20T01:27:49;7.50;99.90
18131;DHT22;9191;54.324;10.126;2022-12-20T01:30:17;7.50;99.90
18131;DHT22;9191;54.324;10.126;2022-12-20T01:32:44;7.50;99.90
18131;DHT22;9191;54.324;10.126;2022-12-20T01:35:11;7.50;99.90
18131;DHT22;9191;54.324;10.126;2022-12-20T01:37:37;7.50;99.90
18131;DHT22;9191;54.324;10.126;2022-12-20T01:40:05;7.40;99.90
18131;DHT22;9191;54.324;10.126;2022-12-20T01:42:32;7.40;99.90
18131;DHT22;9191;54.324;10.126;2022-12-20T01:44:59;7.40;99.90
18131;DHT22;9191;54.324;10.126;2022-12-20T01:47:28;7.40;99.90
18131;DHT22;9191;54.324;10.126;2022-12-20T01:49:56;7.30;99.90
18131;DHT22;9191;54.324;10.126;2022-12-20T01:52:26;7.40;99.90
18131;DHT22;9191;54.324;10.126;2022-12-20T01:54:54;7.30;99.90
18131;DHT22;9191;54.324;10.126;2022-12-20T01:57:23;7.60;99.90
18131;DHT22;9191;54.324;10.126;2022-12-20T01:59:52;7.30;99.90
18131;DHT22;9191;54.324;10.126;2022-12-20T02:02:20;7.20;99.90
18131;DHT22;9191;54.324;10.126;2022-12-20T02:04:49;7.30;99.90
18131;DHT22;9191;54.324;10.126;2022-12-20T02:07:16;7.30;99.90
18131;DHT22;9191;54.324;10.126;2022-12-20T02:09:44;7.40;99.90
18131;DHT22;9191;54.324;10.126;2022-12-20T02:12:11;7.30;99.90
18131;DHT22;9191;54.324;10.126;2022-12-20T02:14:47;7.30;99.90
18131;DHT22;9191;54.324;10.126;2022-12-20T02:17:20;7.30;99.90
18131;DHT22;9191;54.324;10.126;2022-12-20T02:22:38;7.30;99.90
18131;DHT22;9191;54.324;10.126;2022-12-20T02:25:13;7.40;99.90
18131;DHT22;9191;54.324;10.126;2022-12-20T02:27:51;7.50;99.90
18131;DHT22;9191;54.324;10.126;2022-12-20T02:30:21;7.50;99.90
18131;DHT22;9191;54.324;10.126;2022-12-20T02:32:50;7.40;99.90
18131;DHT22;9191;54.324;10.126;2022-12-20T02:35:20;7.40;99.90
18131;DHT22;9191;54.324;10.126;2022-12-20T02:37:50;7.50;99.90
18131;DHT22;9191;54.324;10.126;2022-12-20T02:40:19;7.40;99.90
18131;DHT22;9191;54.324;10.126;2022-12-20T02:42:46;7.40;99.90
18131;DHT22;9191;54.324;10.126;2022-12-20T02:45:14;7.50;99.90
18131;DHT22;9191;54.324;10.126;2022-12-20T02:47:41;7.60;99.90
18131;DHT22;9191;54.324;10.126;2022-12-20T02:50:11;7.60;99.90
18131;DHT22;9191;54.324;10.126;2022-12-20T02:52:38;7.60;99.90
18131;DHT22;9191;54.324;10.126;2022-12-20T02:55:05;7.50;99.90
18131;DHT22;9191;54.324;10.126;2022-12-20T02:57:37;7.50;99.90
18131;DHT22;9191;54.324;10.126;2022-12-20T03:00:07;7.50;99.90
18131;DHT22;9191;54.324;10.126;2022-12-20T03:02:36;7.50;99.90
18131;DHT22;9191;54.324;10.126;2022-12-20T03:05:19;7.40;99.90
18131;DHT22;9191;54.324;10.126;2022-12-20T03:07:47;7.50;99.90
18131;DHT22;9191;54.324;10.126;2022-12-20T03:10:13;7.50;99.90
18131;DHT22;9191;54.324;10.126;2022-12-20T03:12:40;7.40;99.90
18131;DHT22;9191;54.324;10.126;2022-12-20T03:15:07;7.50;99.90
18131;DHT22;9191;54.324;10.126;2022-12-20T03:17:35;7.40;99.90
18131;DHT22;9191;54.324;10.126;2022-12-20T03:20:02;7.50;99.90
18131;DHT22;9191;54.324;10.126;2022-12-20T03:22:30;7.50;99.90
18131;DHT22;9191;54.324;10.126;2022-12-20T03:24:57;7.50;99.90
18131;DHT22;9191;54.324;10.126;2022-12-20T03:27:24;7.40;99.90
18131;DHT22;9191;54.324;10.126;2022-12-20T03:29:52;7.40;99.90
18131;DHT22;9191;54.324;10.126;2022-12-20T03:32:19;7.40;99.90
18131;DHT22;9191;54.324;10.126;2022-12-20T03:34:46;7.40;99.90
18131;DHT22;9191;54.324;10.126;2022-12-20T03:37:13;7.40;99.90
18131;DHT22;9191;54.324;10.126;2022-12-20T03:39:41;7.40;99.90
18131;DHT22;9191;54.324;10.126;2022-12-20T03:42:07;7.40;99.90
18131;DHT22;9191;54.324;10.126;2022-12-20T03:44:36;7.40;99.90
18131;DHT22;9191;54.324;10.126;2022-12-20T03:47:03;7.40;99.90
18131;DHT22;9191;54.324;10.126;2022-12-20T03:49:30;7.50;99.90
18131;DHT22;9191;54.324;10.126;2022-12-20T03:51:56;7.50;99.90
18131;DHT22;9191;54.324;10.126;2022-12-20T03:54:23;7.50;99.90
18131;DHT22;9191;54.324;10.126;2022-12-20T03:56:52;7.50;99.90
18131;DHT22;9191;54.324;10.126;2022-12-20T03:59:18;7.60;99.90
18131;DHT22;9191;54.324;10.126;2022-12-20T04:01:45;7.50;99.90
18131;DHT22;9191;54.324;10.126;2022-12-20T04:04:13;7.60;99.90
18131;DHT22;9191;54.324;10.126;2022-12-20T04:06:40;7.50;99.90
18131;DHT22;9191;54.324;10.126;2022-12-20T04:09:08;7.50;99.90
18131;DHT22;9191;54.324;10.126;2022-12-20T04:11:35;7.50;99.90
18131;DHT22;9191;54.324;10.126;2022-12-20T04:14:03;7.50;99.90
18131;DHT22;9191;54.324;10.126;2022-12-20T04:16:30;7.40;99.90
18131;DHT22;9191;54.324;10.126;2022-12-20T04:18:57;7.50;99.90
18131;DHT22;9191;54.324;10.126;2022-12-20T04:21:25;7.50;99.90
18131;DHT22;9191;54.324;10.126;2022-12-20T04:23:51;7.80;99.90
18131;DHT22;9191;54.324;10.126;2022-12-20T04:26:18;7.80;99.90
18131;DHT22;9191;54.324;10.126;2022-12-20T04:28:45;7.60;99.90
18131;DHT22;9191;54.324;10.126;2022-12-20T04:31:13;7.80;99.90
18131;DHT22;9191;54.324;10.126;2022-12-20T04:33:40;7.70;99.90
18131;DHT22;9191;54.324;10.126;2022-12-20T04:36:07;7.60;99.90
18131;DHT22;9191;54.324;10.126;2022-12-20T04:38:34;7.70;99.90
18131;DHT22;9191;54.324;10.126;2022-12-20T04:41:01;7.70;99.90
18131;DHT22;9191;54.324;10.126;2022-12-20T04:43:27;7.70;99.90
18131;DHT22;9191;54.324;10.126;2022-12-20T04:45:54;7.80;99.90
18131;DHT22;9191;54.324;10.126;2022-12-20T04:48:23;7.80;99.90
18131;DHT22;9191;54.324;10.126;2022-12-20T04:50:51;7.80;99.90
18131;DHT22;9191;54.324;10.126;2022-12-20T04:53:18;7.80;99.90
18131;DHT22;9191;54.324;10.126;2022-12-20T04:56:03;7.80;99.90
18131;DHT22;9191;54.324;10.126;2022-12-20T04:58:30;7.80;99.90
18131;DHT22;9191;54.324;10.126;2022-12-20T05:00:56;8.00;99.90
18131;DHT22;9191;54.324;10.126;2022-12-20T05:03:25;7.80;99.90
18131;DHT22;9191;54.324;10.126;2022-12-20T05:05:52;7.90;99.90
18131;DHT22;9191;54.324;10.126;2022-12-20T05:08:18;7.80;99.90
18131;DHT22;9191;54.324;10.126;2022-12-20T05:10:48;7.90;99.90
18131;DHT22;9191;54.324;10.126;2022-12-20T05:13:15;7.80;99.90
18131;DHT22;9191;54.324;10.126;2022-12-20T05:15:42;7.90;99.90
18131;DHT22;9191;54.324;10.126;2022-12-20T05:18:09;7.90;99.90
18131;DHT22;9191;54.324;10.126;2022-12-20T05:20:37;7.90;99.90
18131;DHT22;9191;54.324;10.126;2022-12-20T05:23:03;7.90;99.90
18131;DHT22;9191;54.324;10.126;2022-12-20T05:25:48;8.00;99.90
18131;DHT22;9191;54.324;10.126;2022-12-20T05:28:29;7.90;99.90
18131;DHT22;9191;54.324;10.126;2022-12-20T05:30:56;8.00;99.90
18131;DHT22;9191;54.324;10.126;2022-12-20T05:33:23;7.90;99.90
18131;DHT22;9191;54.324;10.126;2022-12-20T05:35:51;7.90;99.90
18131;DHT22;9191;54.324;10.126;2022-12-20T05:38:18;7.90;99.90
18131;DHT22;9191;54.324;10.126;2022-12-20T05:40:46;7.90;99.90
18131;DHT22;9191;54.324;10.126;2022-12-20T05:43:12;8.00;99.90
18131;DHT22;9191;54.324;10.126;2022-12-20T05:45:39;8.00;99.90
18131;DHT22;9191;54.324;10.126;2022-12-20T05:48:06;7.90;99.90
18131;DHT22;9191;54.324;10.126;2022-12-20T05:50:33;8.00;99.90
18131;DHT22;9191;54.324;10.126;2022-12-20T05:53:01;7.90;99.90
18131;DHT22;9191;54.324;10.126;2022-12-20T05:55:29;7.90;99.90
18131;DHT22;9191;54.324;10.126;2022-12-20T05:57:56;7.90;99.90
18131;DHT22;9191;54.324;10.126;2022-12-20T06:00:22;7.90;99.90
18131;DHT22;9191;54.324;10.126;2022-12-20T06:02:49;8.00;99.90
18131;DHT22;9191;54.324;10.126;2022-12-20T06:05:16;7.70;99.90
18131;DHT22;9191;54.324;10.126;2022-12-20T06:07:43;8.00;99.90
18131;DHT22;9191;54.324;10.126;2022-12-20T06:10:11;8.00;99.90
18131;DHT22;9191;54.324;10.126;2022-12-20T06:12:37;8.00;99.90
18131;DHT22;9191;54.324;10.126;2022-12-20T06:15:04;8.00;99.90
18131;DHT22;9191;54.324;10.126;2022-12-20T06:17:33;8.00;99.90
18131;DHT22;9191;54.324;10.126;2022-12-20T06:20:00;8.00;99.90
18131;DHT22;9191;54.324;10.126;2022-12-20T06:22:28;8.10;99.90
18131;DHT22;9191;54.324;10.126;2022-12-20T06:24:54;8.00;99.90
18131;DHT22;9191;54.324;10.126;2022-12-20T06:27:22;8.00;99.90
18131;DHT22;9191;54.324;10.126;2022-12-20T06:29:50;8.10;99.90
18131;DHT22;9191;54.324;10.126;2022-12-20T06:32:20;8.10;99.90
18131;DHT22;9191;54.324;10.126;2022-12-20T06:34:49;8.00;99.90
18131;DHT22;9191;54.324;10.126;2022-12-20T06:37:16;8.10;99.90
18131;DHT22;9191;54.324;10.126;2022-12-20T06:39:42;8.30;99.90
18131;DHT22;9191;54.324;10.126;2022-12-20T06:42:09;8.30;99.90
18131;DHT22;9191;54.324;10.126;2022-12-20T06:44:37;8.20;99.90
18131;DHT22;9191;54.324;10.126;2022-12-20T06:47:04;8.20;99.90
18131;DHT22;9191;54.324;10.126;2022-12-20T06:49:31;8.30;99.90
18131;DHT22;9191;54.324;10.126;2022-12-20T06:51:58;8.40;99.90
18131;DHT22;9191;54.324;10.126;2022-12-20T06:54:24;8.30;99.90
18131;DHT22;9191;54.324;10.126;2022-12-20T06:56:51;8.30;99.90
18131;DHT22;9191;54.324;10.126;2022-12-20T06:59:18;8.40;99.90
18131;DHT22;9191;54.324;10.126;2022-12-20T07:01:46;8.20;99.90
18131;DHT22;9191;54.324;10.126;2022-12-20T07:04:12;8.20;99.90
18131;DHT22;9191;54.324;10.126;2022-12-20T07:06:39;8.30;99.90
18131;DHT22;9191;54.324;10.126;2022-12-20T07:09:06;8.30;99.90
18131;DHT22;9191;54.324;10.126;2022-12-20T07:11:36;8.30;99.90
18131;DHT22;9191;54.324;10.126;2022-12-20T07:14:03;8.40;99.90
18131;DHT22;9191;54.324;10.126;2022-12-20T07:16:29;8.40;99.90
18131;DHT22;9191;54.324;10.126;2022-12-20T07:18:58;8.40;99.90
18131;DHT22;9191;54.324;10.126;2022-12-20T07:21:25;8.40;99.90
18131;DHT22;9191;54.324;10.126;2022-12-20T07:23:53;8.40;99.90
18131;DHT22;9191;54.324;10.126;2022-12-20T07:26:20;8.50;99.90
18131;DHT22;9191;54.324;10.126;2022-12-20T07:28:47;8.40;99.90
18131;DHT22;9191;54.324;10.126;2022-12-20T07:31:14;8.60;99.90
18131;DHT22;9191;54.324;10.126;2022-12-20T07:33:40;8.40;99.90
18131;DHT22;9191;54.324;10.126;2022-12-20T07:36:09;8.40;99.90
18131;DHT22;9191;54.324;10.126;2022-12-20T07:38:36;8.50;99.90
18131;DHT22;9191;54.324;10.126;2022-12-20T07:41:05;8.50;99.90
18131;DHT22;9191;54.324;10.126;2022-12-20T07:43:32;8.50;99.90
18131;DHT22;9191;54.324;10.126;2022-12-20T07:45:59;8.50;99.90
18131;DHT22;9191;54.324;10.126;2022-12-20T07:48:25;8.50;99.90
18131;DHT22;9191;54.324;10.126;2022-12-20T07:50:52;8.60;99.90
18131;DHT22;9191;54.324;10.126;2022-12-20T07:53:22;8.60;99.90
18131;DHT22;9191;54.324;10.126;2022-12-20T07:55:50;8.60;99.90
18131;DHT22;9191;54.324;10.126;2022-12-20T07:58:17;8.60;99.90
18131;DHT22;9191;54.324;10.126;2022-12-20T08:00:44;8.70;99.90
18131;DHT22;9191;54.324;10.126;2022-12-20T08:03:12;8.60;99.90
18131;DHT22;9191;54.324;10.126;2022-12-20T08:05:40;8.70;99.90
18131;DHT22;9191;54.324;10.126;2022-12-20T08:08:09;8.70;99.90
18131;DHT22;9191;54.324;10.126;2022-12-20T08:10:37;8.70;99.90
18131;DHT22;9191;54.324;10.126;2022-12-20T08:13:06;8.70;99.90
18131;DHT22;9191;54.324;10.126;2022-12-20T08:15:33;8.80;99.90
18131;DHT22;9191;54.324;10.126;2022-12-20T08:18:00;8.80;99.90
18131;DHT22;9191;54.324;10.126;2022-12-20T08:20:27;8.80;99.90
18131;DHT22;9191;54.324;10.126;2022-12-20T08:22:54;8.80;99.90
18131;DHT22;9191;54.324;10.126;2022-12-20T08:25:20;8.80;99.90
18131;DHT22;9191;54.324;10.126;2022-12-20T08:27:48;8.80;99.90
18131;DHT22;9191;54.324;10.126;2022-12-20T08:30:15;8.80;99.90
18131;DHT22;9191;54.324;10.126;2022-12-20T08:32:43;9.00;99.90
18131;DHT22;9191;54.324;10.126;2022-12-20T08:35:10;8.80;99.90
18131;DHT22;9191;54.324;10.126;2022-12-20T08:37:37;9.00;99.90
18131;DHT22;9191;54.324;10.126;2022-12-20T08:40:05;8.90;99.90
18131;DHT22;9191;54.324;10.126;2022-12-20T08:42:33;9.00;99.90
18131;DHT22;9191;54.324;10.126;2022-12-20T08:45:01;9.00;99.90
18131;DHT22;9191;54.324;10.126;2022-12-20T08:47:28;9.00;99.90
18131;DHT22;9191;54.324;10.126;2022-12-20T08:49:55;9.00;99.90
18131;DHT22;9191;54.324;10.126;2022-12-20T08:52:22;9.10;99.90
18131;DHT22;9191;54.324;10.126;2022-12-20T08:54:48;9.10;99.90
18131;DHT22;9191;54.324;10.126;2022-12-20T08:57:15;9.10;99.90
18131;DHT22;9191;54.324;10.126;2022-12-20T08:59:42;9.10;99.90
18131;DHT22;9191;54.324;10.126;2022-12-20T09:02:10;9.20;99.90
18131;DHT22;9191;54.324;10.126;2022-12-20T09:04:37;9.30;99.90
18131;DHT22;9191;54.324;10.126;2022-12-20T09:07:03;9.20;99.90
18131;DHT22;9191;54.324;10.126;2022-12-20T09:09:30;9.20;99.90
18131;DHT22;9191;54.324;10.126;2022-12-20T09:11:57;9.20;99.90
18131;DHT22;9191;54.324;10.126;2022-12-20T09:14:23;9.30;99.90
18131;DHT22;9191;54.324;10.126;2022-12-20T09:16:50;9.30;99.90
18131;DHT22;9191;54.324;10.126;2022-12-20T09:19:18;9.30;99.90
18131;DHT22;9191;54.324;10.126;2022-12-20T09:21:45;9.30;99.90
18131;DHT22;9191;54.324;10.126;2022-12-20T09:24:11;9.30;99.90
18131;DHT22;9191;54.324;10.126;2022-12-20T09:26:38;9.30;99.90
18131;DHT22;9191;54.324;10.126;2022-12-20T09:29:06;9.30;99.90
18131;DHT22;9191;54.324;10.126;2022-12-20T09:31:32;9.40;99.90
18131;DHT22;9191;54.324;10.126;2022-12-20T09:33:59;9.30;99.90
18131;DHT22;9191;54.324;10.126;2022-12-20T09:36:28;9.30;99.90
18131;DHT22;9191;54.324;10.126;2022-12-20T09:38:55;9.40;99.90
18131;DHT22;9191;54.324;10.126;2022-12-20T09:41:24;9.50;99.90
18131;DHT22;9191;54.324;10.126;2022-12-20T09:43:51;9.50;99.90
18131;DHT22;9191;54.324;10.126;2022-12-20T09:46:18;9.60;99.90
18131;DHT22;9191;54.324;10.126;2022-12-20T09:48:45;9.70;99.90
18131;DHT22;9191;54.324;10.126;2022-12-20T09:51:14;9.70;99.90
18131;DHT22;9191;54.324;10.126;2022-12-20T09:53:46;9.60;99.90
18131;DHT22;9191;54.324;10.126;2022-12-20T09:56:18;9.60;99.90
18131;DHT22;9191;54.324;10.126;2022-12-20T09:58:53;9.60;99.90
18131;DHT22;9191;54.324;10.126;2022-12-20T10:01:22;9.70;99.90
18131;DHT22;9191;54.324;10.126;2022-12-20T10:03:50;9.70;99.90
18131;DHT22;9191;54.324;10.126;2022-12-20T10:06:19;9.70;99.90
18131;DHT22;9191;54.324;10.126;2022-12-20T10:08:50;9.80;99.90
18131;DHT22;9191;54.324;10.126;2022-12-20T10:11:28;9.70;99.90
18131;DHT22;9191;54.324;10.126;2022-12-20T10:13:58;9.70;99.90
18131;DHT22;9191;54.324;10.126;2022-12-20T10:16:31;9.80;99.90
18131;DHT22;9191;54.324;10.126;2022-12-20T10:19:01;9.80;99.90
18131;DHT22;9191;54.324;10.126;2022-12-20T10:21:33;9.80;99.90
18131;DHT22;9191;54.324;10.126;2022-12-20T10:24:07;9.80;99.90
18131;DHT22;9191;54.324;10.126;2022-12-20T10:26:35;9.80;99.90
18131;DHT22;9191;54.324;10.126;2022-12-20T10:29:02;9.90;99.90
18131;DHT22;9191;54.324;10.126;2022-12-20T10:31:29;9.80;99.90
18131;DHT22;9191;54.324;10.126;2022-12-20T10:33:55;9.80;99.90
18131;DHT22;9191;54.324;10.126;2022-12-20T10:36:26;9.80;99.90
18131;DHT22;9191;54.324;10.126;2022-12-20T10:38:53;9.80;99.90
18131;DHT22;9191;54.324;10.126;2022-12-20T10:41:22;9.80;99.90
18131;DHT22;9191;54.324;10.126;2022-12-20T10:43:51;9.70;99.90
18131;DHT22;9191;54.324;10.126;2022-12-20T10:46:19;9.70;99.90
18131;DHT22;9191;54.324;10.126;2022-12-20T10:48:46;9.70;99.90
18131;DHT22;9191;54.324;10.126;2022-12-20T10:51:14;9.60;99.90
18131;DHT22;9191;54.324;10.126;2022-12-20T10:53:54;9.60;99.90
18131;DHT22;9191;54.324;10.126;2022-12-20T10:56:23;9.60;99.90
18131;DHT22;9191;54.324;10.126;2022-12-20T10:58:52;9.60;99.90
18131;DHT22;9191;54.324;10.126;2022-12-20T11:01:20;9.60;99.90
18131;DHT22;9191;54.324;10.126;2022-12-20T11:03:54;9.60;99.90
18131;DHT22;9191;54.324;10.126;2022-12-20T11:06:26;9.70;99.90
18131;DHT22;9191;54.324;10.126;2022-12-20T11:08:53;9.70;99.90
18131;DHT22;9191;54.324;10.126;2022-12-20T11:11:20;9.70;99.90
18131;DHT22;9191;54.324;10.126;2022-12-20T11:13:49;9.70;99.90
18131;DHT22;9191;54.324;10.126;2022-12-20T11:16:23;9.70;99.90
18131;DHT22;9191;54.324;10.126;2022-12-20T11:18:51;9.70;99.90
18131;DHT22;9191;54.324;10.126;2022-12-20T11:21:21;9.70;99.90
18131;DHT22;9191;54.324;10.126;2022-12-20T11:23:51;9.70;99.90
18131;DHT22;9191;54.324;10.126;2022-12-20T11:26:26;9.70;99.90
18131;DHT22;9191;54.324;10.126;2022-12-20T11:29:01;9.80;99.90
18131;DHT22;9191;54.324;10.126;2022-12-20T11:31:33;9.80;99.90
18131;DHT22;9191;54.324;10.126;2022-12-20T11:34:11;9.80;99.90
18131;DHT22;9191;54.324;10.126;2022-12-20T11:36:46;9.90;99.90
18131;DHT22;9191;54.324;10.126;2022-12-20T11:39:18;9.90;99.90
18131;DHT22;9191;54.324;10.126;2022-12-20T11:41:49;10.00;99.90
18131;DHT22;9191;54.324;10.126;2022-12-20T11:44:23;10.00;99.90
18131;DHT22;9191;54.324;10.126;2022-12-20T11:47:10;10.00;99.90
18131;DHT22;9191;54.324;10.126;2022-12-20T11:52:28;10.00;99.90
18131;DHT22;9191;54.324;10.126;2022-12-20T11:55:01;10.00;99.90
18131;DHT22;9191;54.324;10.126;2022-12-20T11:57:33;10.00;99.90
18131;DHT22;9191;54.324;10.126;2022-12-20T12:00:02;10.00;99.90
18131;DHT22;9191;54.324;10.126;2022-12-20T12:02:32;9.90;99.90
18131;DHT22;9191;54.324;10.126;2022-12-20T12:05:02;9.80;99.90
18131;DHT22;9191;54.324;10.126;2022-12-20T12:07:29;9.90;99.90
18131;DHT22;9191;54.324;10.126;2022-12-20T12:09:58;9.90;99.90
18131;DHT22;9191;54.324;10.126;2022-12-20T12:12:26;9.90;99.90
18131;DHT22;9191;54.324;10.126;2022-12-20T12:14:55;9.90;99.90
18131;DHT22;9191;54.324;10.126;2022-12-20T12:17:27;9.90;99.90
18131;DHT22;9191;54.324;10.126;2022-12-20T12:19:55;9.90;99.90
18131;DHT22;9191;54.324;10.126;2022-12-20T12:22:27;9.90;99.90
18131;DHT22;9191;54.324;10.126;2022-12-20T12:24:56;9.80;99.90
18131;DHT22;9191;54.324;10.126;2022-12-20T12:27:25;9.90;99.90
18131;DHT22;9191;54.324;10.126;2022-12-20T12:29:53;9.90;99.90
18131;DHT22;9191;54.324;10.126;2022-12-20T12:32:26;9.90;99.90
18131;DHT22;9191;54.324;10.126;2022-12-20T12:35:13;9.90;99.90
18131;DHT22;9191;54.324;10.126;2022-12-20T12:37:46;9.90;99.90
18131;DHT22;9191;54.324;10.126;2022-12-20T12:43:16;10.00;99.90
18131;DHT22;9191;54.324;10.126;2022-12-20T12:45:48;10.00;99.90
18131;DHT22;9191;54.324;10.126;2022-12-20T12:48:18;9.80;99.90
18131;DHT22;9191;54.324;10.126;2022-12-20T12:50:48;9.90;99.90
18131;DHT22;9191;54.324;10.126;2022-12-20T12:53:16;10.00;99.90
18131;DHT22;9191;54.324;10.126;2022-12-20T12:55:43;10.00;99.90
18131;DHT22;9191;54.324;10.126;2022-12-20T13:00:56;10.10;99.90
18131;DHT22;9191;54.324;10.126;2022-12-20T13:09:15;10.20;99.90
18131;DHT22;9191;54.324;10.126;2022-12-20T13:11:42;10.10;99.90
18131;DHT22;9191;54.324;10.126;2022-12-20T13:14:10;10.10;99.90
18131;DHT22;9191;54.324;10.126;2022-12-20T13:16:37;10.20;99.90
18131;DHT22;9191;54.324;10.126;2022-12-20T13:19:12;10.20;99.90
18131;DHT22;9191;54.324;10.126;2022-12-20T13:21:39;10.10;99.90
18131;DHT22;9191;54.324;10.126;2022-12-20T13:24:29;10.30;99.90
18131;DHT22;9191;54.324;10.126;2022-12-20T13:26:56;10.20;99.90
18131;DHT22;9191;54.324;10.126;2022-12-20T13:29:24;10.30;99.90
18131;DHT22;9191;54.324;10.126;2022-12-20T13:31:51;10.30;99.90
18131;DHT22;9191;54.324;10.126;2022-12-20T13:34:37;10.30;99.90
18131;DHT22;9191;54.324;10.126;2022-12-20T13:39:47;10.20;99.90
18131;DHT22;9191;54.324;10.126;2022-12-20T13:42:21;10.20;99.90
18131;DHT22;9191;54.324;10.126;2022-12-20T13:44:52;10.20;99.90
18131;DHT22;9191;54.324;10.126;2022-12-20T13:47:30;10.10;99.90
18131;DHT22;9191;54.324;10.126;2022-12-20T13:50:01;10.10;99.90
18131;DHT22;9191;54.324;10.126;2022-12-20T13:52:38;10.20;99.90
18131;DHT22;9191;54.324;10.126;2022-12-20T13:55:22;10.20;99.90
18131;DHT22;9191;54.324;10.126;2022-12-20T13:57:50;10.20;99.90
18131;DHT22;9191;54.324;10.126;2022-12-20T14:00:18;10.20;99.90
18131;DHT22;9191;54.324;10.126;2022-12-20T14:02:47;10.20;99.90
18131;DHT22;9191;54.324;10.126;2022-12-20T14:05:16;10.10;99.90
18131;DHT22;9191;54.324;10.126;2022-12-20T14:07:44;10.10;99.90
18131;DHT22;9191;54.324;10.126;2022-12-20T14:10:17;10.10;99.90
18131;DHT22;9191;54.324;10.126;2022-12-20T14:12:45;10.10;99.90
18131;DHT22;9191;54.324;10.126;2022-12-20T14:15:22;10.10;99.90
18131;DHT22;9191;54.324;10.126;2022-12-20T14:17:49;10.10;99.90
18131;DHT22;9191;54.324;10.126;2022-12-20T14:20:16;10.10;99.90
18131;DHT22;9191;54.324;10.126;2022-12-20T14:22:45;10.10;99.90
18131;DHT22;9191;54.324;10.126;2022-12-20T14:25:13;10.10;99.90
18131;DHT22;9191;54.324;10.126;2022-12-20T14:27:43;10.10;99.90
18131;DHT22;9191;54.324;10.126;2022-12-20T14:32:52;10.10;99.90
18131;DHT22;9191;54.324;10.126;2022-12-20T14:35:19;10.10;99.90
18131;DHT22;9191;54.324;10.126;2022-12-20T14:37:51;10.10;99.90
18131;DHT22;9191;54.324;10.126;2022-12-20T14:40:18;10.00;99.90
18131;DHT22;9191;54.324;10.126;2022-12-20T14:42:47;10.00;99.90
18131;DHT22;9191;54.324;10.126;2022-12-20T14:45:21;10.10;99.90
18131;DHT22;9191;54.324;10.126;2022-12-20T14:47:53;10.00;99.90
18131;DHT22;9191;54.324;10.126;2022-12-20T14:50:21;10.00;99.90
18131;DHT22;9191;54.324;10.126;2022-12-20T14:52:49;10.00;99.90
18131;DHT22;9191;54.324;10.126;2022-12-20T14:55:16;9.90;99.90
18131;DHT22;9191;54.324;10.126;2022-12-20T14:57:45;10.00;99.90
18131;DHT22;9191;54.324;10.126;2022-12-20T15:00:18;10.00;99.90
18131;DHT22;9191;54.324;10.126;2022-12-20T15:02:48;10.00;99.90
18131;DHT22;9191;54.324;10.126;2022-12-20T15:05:35;10.00;99.90
18131;DHT22;9191;54.324;10.126;2022-12-20T15:08:09;10.00;99.90
18131;DHT22;9191;54.324;10.126;2022-12-20T15:10:36;9.90;99.90
18131;DHT22;9191;54.324;10.126;2022-12-20T15:13:03;9.90;99.90
18131;DHT22;9191;54.324;10.126;2022-12-20T15:15:31;9.90;99.90
18131;DHT22;9191;54.324;10.126;2022-12-20T15:17:58;9.90;99.90
18131;DHT22;9191;54.324;10.126;2022-12-20T15:20:25;9.80;99.90
18131;DHT22;9191;54.324;10.126;2022-12-20T15:22:52;9.80;99.90
18131;DHT22;9191;54.324;10.126;2022-12-20T15:25:18;9.80;99.90
18131;DHT22;9191;54.324;10.126;2022-12-20T15:27:45;9.80;99.90
18131;DHT22;9191;54.324;10.126;2022-12-20T15:30:12;9.80;99.90
18131;DHT22;9191;54.324;10.126;2022-12-20T15:32:40;9.90;99.90
18131;DHT22;9191;54.324;10.126;2022-12-20T15:35:10;9.80;99.90
18131;DHT22;9191;54.324;10.126;2022-12-20T15:37:38;9.80;99.90
18131;DHT22;9191;54.324;10.126;2022-12-20T15:40:05;9.80;99.90
18131;DHT22;9191;54.324;10.126;2022-12-20T15:42:32;9.80;99.90
18131;DHT22;9191;54.324;10.126;2022-12-20T15:45:00;9.70;99.90
18131;DHT22;9191;54.324;10.126;2022-12-20T15:47:26;9.70;99.90
18131;DHT22;9191;54.324;10.126;2022-12-20T15:49:54;9.70;99.90
18131;DHT22;9191;54.324;10.126;2022-12-20T15:52:21;9.70;99.90
18131;DHT22;9191;54.324;10.126;2022-12-20T15:54:49;9.80;99.90
18131;DHT22;9191;54.324;10.126;2022-12-20T15:57:15;9.70;99.90
18131;DHT22;9191;54.324;10.126;2022-12-20T15:59:42;9.70;99.90
18131;DHT22;9191;54.324;10.126;2022-12-20T16:02:11;9.70;99.90
18131;DHT22;9191;54.324;10.126;2022-12-20T16:04:42;9.70;99.90
18131;DHT22;9191;54.324;10.126;2022-12-20T16:07:11;9.70;99.90
18131;DHT22;9191;54.324;10.126;2022-12-20T16:09:41;9.70;99.90
18131;DHT22;9191;54.324;10.126;2022-12-20T16:12:09;9.70;99.90
18131;DHT22;9191;54.324;10.126;2022-12-20T16:14:38;9.70;99.90
18131;DHT22;9191;54.324;10.126;2022-12-20T16:17:05;9.60;99.90